createdAt,value
2023-02-09T00:01:37.422Z,-5.70
2023-02-09T00:04:06.007Z,-5.72
2023-02-09T00:06:34.182Z,-5.74
2023-02-09T00:09:03.705Z,-5.74
2023-02-09T00:11:51.522Z,-5.71
2023-02-09T00:14:22.097Z,-5.66
2023-02-09T00:16:52.315Z,-5.64
2023-02-09T00:19:21.988Z,-5.61
2023-02-09T00:21:50.576Z,-5.58
2023-02-09T00:24:18.743Z,-5.56
2023-02-09T00:26:47.736Z,-5.53
2023-02-09T00:29:17.855Z,-5.51
2023-02-09T00:31:45.934Z,-5.47
2023-02-09T00:34:15.530Z,-5.44
2023-02-09T00:36:45.744Z,-5.40
2023-02-09T00:39:14.135Z,-5.37
2023-02-09T00:42:00.849Z,-5.37
2023-02-09T00:44:29.341Z,-5.37
2023-02-09T00:46:58.144Z,-5.37
2023-02-09T00:49:26.288Z,-5.39
2023-02-09T00:51:54.564Z,-5.43
2023-02-09T00:54:23.351Z,-5.46
2023-02-09T00:56:52.110Z,-5.48
2023-02-09T00:59:20.364Z,-5.50
2023-02-09T01:01:48.702Z,-5.54
2023-02-09T01:04:17.006Z,-5.58
2023-02-09T01:06:45.247Z,-5.63
2023-02-09T01:09:13.322Z,-5.67
2023-02-09T01:11:42.565Z,-5.70
2023-02-09T01:14:13.237Z,-5.72
2023-02-09T01:16:41.481Z,-5.75
2023-02-09T01:19:13.292Z,-5.76
2023-02-09T01:21:41.870Z,-5.79
2023-02-09T01:24:14.596Z,-5.80
2023-02-09T01:26:42.824Z,-5.80
2023-02-09T01:29:17.247Z,-5.80
2023-02-09T01:31:46.620Z,-5.79
2023-02-09T01:34:18.209Z,-5.77
2023-02-09T01:36:50.380Z,-5.75
2023-02-09T01:39:18.579Z,-5.75
2023-02-09T01:41:46.888Z,-5.79
2023-02-09T01:44:15.032Z,-5.82
2023-02-09T01:46:44.365Z,-5.84
2023-02-09T01:49:17.589Z,-5.86
2023-02-09T01:52:01.275Z,-5.89
2023-02-09T01:54:37.996Z,-5.92
2023-02-09T01:57:10.379Z,-5.97
2023-02-09T01:59:42.404Z,-6.02
2023-02-09T02:02:11.615Z,-6.08
2023-02-09T02:04:43.710Z,-6.16
2023-02-09T02:07:20.694Z,-6.24
2023-02-09T02:09:50.606Z,-6.32
2023-02-09T02:12:19.289Z,-6.40
2023-02-09T02:14:47.467Z,-6.48
2023-02-09T02:17:25.058Z,-6.57
2023-02-09T02:20:13.402Z,-6.65
2023-02-09T02:22:56.017Z,-6.74
2023-02-09T02:25:55.321Z,-6.82
2023-02-09T02:28:37.524Z,-6.88
2023-02-09T02:31:15.447Z,-6.94
2023-02-09T02:33:46.749Z,-6.98
2023-02-09T02:36:30.411Z,-7.02
2023-02-09T02:39:05.753Z,-7.04
2023-02-09T02:42:24.514Z,-7.04
2023-02-09T02:45:30.279Z,-7.04
2023-02-09T02:48:20.053Z,-7.03
2023-02-09T02:50:57.465Z,-7.02
2023-02-09T02:53:29.992Z,-7.01
2023-02-09T02:56:06.399Z,-7.02
2023-02-09T02:58:39.087Z,-7.02
2023-02-09T03:01:13.397Z,-6.99
2023-02-09T03:03:44.045Z,-6.95
2023-02-09T03:06:14.146Z,-6.91
2023-02-09T03:08:51.683Z,-6.89
2023-02-09T03:11:22.300Z,-6.86
2023-02-09T03:14:11.537Z,-6.84
2023-02-09T03:17:00.602Z,-6.81
2023-02-09T03:19:52.020Z,-6.81
2023-02-09T03:22:42.941Z,-6.81
2023-02-09T03:25:25.746Z,-6.81
2023-02-09T03:28:07.062Z,-6.81
2023-02-09T03:30:37.168Z,-6.80
2023-02-09T03:33:06.224Z,-6.81
2023-02-09T03:35:39.332Z,-6.80
2023-02-09T03:38:07.616Z,-6.80
2023-02-09T03:40:36.295Z,-6.80
2023-02-09T03:43:04.429Z,-6.77
2023-02-09T03:45:32.644Z,-6.75
2023-02-09T03:48:00.920Z,-6.77
2023-02-09T03:50:30.537Z,-6.79
2023-02-09T03:52:59.827Z,-6.79
2023-02-09T03:55:28.307Z,-6.78
2023-02-09T03:57:56.566Z,-6.80
2023-02-09T04:00:24.881Z,-6.84
2023-02-09T04:02:53.080Z,-6.87
2023-02-09T04:05:22.876Z,-6.86
2023-02-09T04:07:51.253Z,-6.87
2023-02-09T04:10:19.503Z,-6.89
2023-02-09T04:12:48.392Z,-6.91
2023-02-09T04:15:16.670Z,-6.90
2023-02-09T04:17:44.742Z,-6.87
2023-02-09T04:20:12.813Z,-6.85
2023-02-09T04:22:41.398Z,-6.88
2023-02-09T04:25:09.774Z,-6.92
2023-02-09T04:27:37.951Z,-6.96
2023-02-09T04:30:06.743Z,-6.98
2023-02-09T04:32:35.015Z,-6.99
2023-02-09T04:35:03.505Z,-6.99
2023-02-09T04:37:31.785Z,-6.99
2023-02-09T04:39:59.953Z,-7.00
2023-02-09T04:42:28.227Z,-7.01
2023-02-09T04:44:56.607Z,-6.99
2023-02-09T04:47:25.192Z,-7.00
2023-02-09T04:49:53.569Z,-7.01
2023-02-09T04:52:21.949Z,-7.01
2023-02-09T04:54:50.331Z,-7.03
2023-02-09T04:57:36.935Z,-7.04
2023-02-09T05:00:05.940Z,-7.08
2023-02-09T05:02:34.211Z,-7.10
2023-02-09T05:05:02.801Z,-7.10
2023-02-09T05:07:31.067Z,-7.12
2023-02-09T05:09:59.143Z,-7.16
2023-02-09T05:12:27.426Z,-7.19
2023-02-09T05:14:55.897Z,-7.23
2023-02-09T05:17:24.072Z,-7.24
2023-02-09T05:19:52.582Z,-7.26
2023-02-09T05:22:20.932Z,-7.27
2023-02-09T05:24:49.311Z,-7.29
2023-02-09T05:27:17.795Z,-7.29
2023-02-09T05:29:45.868Z,-7.28
2023-02-09T05:32:14.191Z,-7.27
2023-02-09T05:34:42.626Z,-7.27
2023-02-09T05:37:11.110Z,-7.26
2023-02-09T05:39:39.488Z,-7.23
2023-02-09T05:42:17.090Z,-7.20
2023-02-09T05:44:48.606Z,-7.16
2023-02-09T05:47:19.739Z,-7.13
2023-02-09T05:49:48.711Z,-7.08
2023-02-09T05:52:17.559Z,-7.01
2023-02-09T05:54:48.497Z,-6.95
2023-02-09T05:57:17.903Z,-6.89
2023-02-09T05:59:46.075Z,-6.83
2023-02-09T06:02:14.277Z,-6.78
2023-02-09T06:04:43.343Z,-6.69
2023-02-09T06:07:12.112Z,-6.31
2023-02-09T06:09:40.436Z,-5.77
2023-02-09T06:12:08.890Z,-5.56
2023-02-09T06:14:37.169Z,-5.52
2023-02-09T06:17:05.644Z,-5.50
2023-02-09T06:19:33.820Z,-5.50
2023-02-09T06:22:02.508Z,-5.54
2023-02-09T06:24:30.583Z,-5.60
2023-02-09T06:26:58.956Z,-5.45
2023-02-09T06:29:27.649Z,-4.77
2023-02-09T06:31:56.153Z,-3.94
2023-02-09T06:34:25.734Z,-3.19
2023-02-09T06:36:54.018Z,-2.47
2023-02-09T06:39:22.596Z,-1.83
2023-02-09T06:41:50.669Z,-1.13
2023-02-09T06:44:19.990Z,-0.48
2023-02-09T06:46:49.065Z,-0.03
2023-02-09T06:49:17.244Z,0.34
2023-02-09T06:51:45.618Z,0.61
2023-02-09T06:54:14.103Z,0.89
2023-02-09T06:56:42.172Z,1.19
2023-02-09T06:59:10.493Z,1.37
2023-02-09T07:01:38.964Z,1.41
2023-02-09T07:04:07.414Z,1.37
2023-02-09T07:06:36.126Z,1.13
2023-02-09T07:09:04.989Z,0.92
2023-02-09T07:11:34.395Z,0.68
2023-02-09T07:14:03.488Z,0.27
2023-02-09T07:16:31.662Z,0.00
2023-02-09T07:19:00.582Z,-0.19
2023-02-09T07:21:28.835Z,-0.46
2023-02-09T07:23:57.101Z,-0.69
2023-02-09T07:26:25.589Z,-0.83
2023-02-09T07:28:53.663Z,-0.87
2023-02-09T07:31:21.838Z,-0.82
2023-02-09T07:33:50.316Z,-0.69
2023-02-09T07:36:18.397Z,-0.58
2023-02-09T07:38:47.118Z,-0.61
2023-02-09T07:41:20.741Z,-0.75
2023-02-09T07:43:49.044Z,-0.94
2023-02-09T07:46:20.047Z,-1.03
2023-02-09T07:48:49.539Z,-1.09
2023-02-09T07:51:21.048Z,-1.08
2023-02-09T07:53:49.124Z,-0.97
2023-02-09T07:56:18.015Z,-0.72
2023-02-09T07:58:46.186Z,-0.55
2023-02-09T08:01:15.088Z,-0.34
2023-02-09T08:03:46.845Z,0.01
2023-02-09T08:06:42.832Z,0.39
2023-02-09T08:09:15.072Z,0.87
2023-02-09T08:11:58.935Z,0.97
2023-02-09T08:14:31.120Z,1.03
2023-02-09T08:17:23.485Z,1.29
2023-02-09T08:20:04.512Z,1.65
2023-02-09T08:22:37.654Z,1.90
2023-02-09T08:25:06.657Z,2.12
2023-02-09T08:27:37.291Z,2.37
2023-02-09T08:30:06.618Z,2.74
2023-02-09T08:32:34.955Z,3.16
2023-02-09T08:35:04.058Z,3.54
2023-02-09T08:37:32.946Z,3.84
2023-02-09T08:40:01.225Z,4.11
2023-02-09T08:42:29.602Z,4.23
2023-02-09T08:44:57.672Z,4.25
2023-02-09T08:47:25.746Z,4.22
2023-02-09T08:49:53.817Z,4.34
2023-02-09T08:52:22.104Z,4.50
2023-02-09T08:54:50.490Z,4.57
2023-02-09T08:57:18.853Z,4.41
2023-02-09T08:59:47.130Z,4.27
2023-02-09T09:02:15.515Z,4.21
2023-02-09T09:04:43.994Z,4.28
2023-02-09T09:07:12.371Z,4.42
2023-02-09T09:09:40.545Z,4.46
2023-02-09T09:12:08.924Z,4.53
2023-02-09T09:14:38.033Z,4.60
2023-02-09T09:17:06.401Z,4.46
2023-02-09T09:19:35.086Z,4.48
2023-02-09T09:22:03.882Z,4.67
2023-02-09T09:24:32.869Z,4.66
2023-02-09T09:27:01.461Z,4.75
2023-02-09T09:29:29.636Z,4.78
2023-02-09T09:31:57.814Z,4.94
2023-02-09T09:34:26.521Z,5.02
2023-02-09T09:36:54.772Z,5.00
2023-02-09T09:39:23.145Z,5.01
2023-02-09T09:41:57.673Z,5.14
2023-02-09T09:44:41.311Z,5.22
2023-02-09T09:47:16.238Z,5.30
2023-02-09T09:49:44.922Z,5.24
2023-02-09T09:52:24.829Z,5.32
2023-02-09T09:54:53.354Z,5.41
2023-02-09T09:57:27.696Z,5.60
2023-02-09T09:59:56.983Z,5.79
2023-02-09T10:02:34.609Z,6.15
2023-02-09T10:05:15.216Z,6.28
2023-02-09T10:07:49.962Z,6.29
2023-02-09T10:10:57.388Z,6.20
2023-02-09T10:13:44.694Z,6.23
2023-02-09T10:16:20.263Z,6.21
2023-02-09T10:18:51.589Z,6.16
2023-02-09T10:21:19.954Z,6.38
2023-02-09T10:24:10.455Z,6.92
2023-02-09T10:26:40.803Z,7.38
2023-02-09T10:29:12.134Z,7.76
2023-02-09T10:31:43.414Z,8.13
2023-02-09T10:34:16.671Z,8.00
2023-02-09T10:36:54.687Z,7.96
2023-02-09T10:39:29.402Z,7.97
2023-02-09T10:42:16.320Z,7.73
2023-02-09T10:44:49.856Z,7.37
2023-02-09T10:47:19.009Z,7.30
2023-02-09T10:50:15.237Z,7.21
2023-02-09T10:52:59.720Z,6.99
2023-02-09T10:55:37.909Z,7.14
2023-02-09T10:58:11.334Z,7.40
2023-02-09T11:00:42.444Z,7.13
2023-02-09T11:03:18.195Z,6.70
2023-02-09T11:05:48.010Z,6.36
2023-02-09T11:08:24.651Z,6.23
2023-02-09T11:10:55.838Z,6.22
2023-02-09T11:13:26.675Z,6.19
2023-02-09T11:16:19.812Z,6.00
2023-02-09T11:19:11.352Z,5.72
2023-02-09T11:21:48.536Z,5.64
2023-02-09T11:24:43.523Z,5.62
2023-02-09T11:27:23.427Z,5.58
2023-02-09T11:30:23.349Z,5.49
2023-02-09T11:33:11.245Z,5.33
2023-02-09T11:36:13.722Z,5.15
2023-02-09T11:38:53.060Z,4.82
2023-02-09T11:42:14.994Z,4.41
2023-02-09T11:44:56.585Z,4.09
2023-02-09T11:47:46.170Z,4.06
2023-02-09T11:50:44.573Z,4.02
2023-02-09T11:53:23.363Z,3.91
2023-02-09T11:55:57.898Z,3.82
2023-02-09T11:58:49.109Z,3.78
2023-02-09T12:01:55.062Z,3.75
2023-02-09T12:04:31.886Z,3.80
2023-02-09T12:07:05.338Z,3.79
2023-02-09T12:09:36.891Z,3.79
2023-02-09T12:12:23.807Z,3.83
2023-02-09T12:15:18.200Z,3.81
2023-02-09T12:17:53.214Z,3.85
2023-02-09T12:20:21.510Z,3.81
2023-02-09T12:23:02.815Z,3.72
2023-02-09T12:25:51.417Z,3.77
2023-02-09T12:28:32.774Z,3.88
2023-02-09T12:31:03.197Z,3.80
2023-02-09T12:34:00.712Z,3.75
2023-02-09T12:36:33.371Z,3.82
2023-02-09T12:39:06.192Z,3.92
2023-02-09T12:41:34.479Z,3.85
2023-02-09T12:44:11.941Z,3.78
2023-02-09T12:46:48.615Z,3.88
2023-02-09T12:49:38.805Z,3.82
2023-02-09T12:52:16.504Z,3.63
2023-02-09T12:54:57.687Z,3.52
2023-02-09T12:57:26.371Z,3.39
2023-02-09T12:59:59.762Z,3.35
2023-02-09T13:02:38.588Z,3.37
2023-02-09T13:05:24.894Z,3.32
2023-02-09T13:08:12.010Z,3.20
2023-02-09T13:10:49.107Z,3.07
2023-02-09T13:13:33.152Z,2.92
2023-02-09T13:16:01.527Z,2.78
2023-02-09T13:19:08.201Z,2.63
2023-02-09T13:21:45.594Z,2.44
2023-02-09T13:24:19.849Z,2.24
2023-02-09T13:26:57.407Z,2.06
2023-02-09T13:29:27.966Z,1.87
2023-02-09T13:32:11.372Z,1.74
2023-02-09T13:34:46.811Z,1.61
2023-02-09T13:37:36.496Z,1.49
2023-02-09T13:40:24.841Z,1.31
2023-02-09T13:42:54.750Z,1.16
2023-02-09T13:45:24.280Z,1.05
2023-02-09T13:47:53.351Z,0.98
2023-02-09T13:50:24.299Z,0.93
2023-02-09T13:52:52.566Z,0.84
2023-02-09T13:55:24.501Z,0.75
2023-02-09T13:58:05.371Z,0.63
2023-02-09T14:00:41.578Z,0.49
2023-02-09T14:03:18.240Z,0.39
2023-02-09T14:06:01.899Z,0.26
2023-02-09T14:08:32.710Z,0.11
2023-02-09T14:11:41.989Z,0.02
2023-02-09T14:14:16.806Z,-0.10
2023-02-09T14:16:53.444Z,-0.18
2023-02-09T14:19:31.204Z,-0.26
2023-02-09T14:22:00.411Z,-0.36
2023-02-09T14:24:44.291Z,-0.45
2023-02-09T14:27:24.098Z,-0.54
2023-02-09T14:29:53.640Z,-0.64
2023-02-09T14:32:33.340Z,-0.73
2023-02-09T14:35:23.676Z,-0.87
2023-02-09T14:37:57.767Z,-1.00
2023-02-09T14:40:29.868Z,-1.13
2023-02-09T14:43:10.325Z,-1.22
2023-02-09T14:45:45.863Z,-1.34
2023-02-09T14:48:27.255Z,-1.44
2023-02-09T14:50:59.536Z,-1.55
2023-02-09T14:53:31.323Z,-1.65
2023-02-09T14:56:00.182Z,-1.73
2023-02-09T14:58:31.606Z,-1.80
2023-02-09T15:01:02.896Z,-1.88
2023-02-09T15:03:31.160Z,-1.96
2023-02-09T15:06:02.609Z,-2.04
2023-02-09T15:08:35.478Z,-2.12
2023-02-09T15:11:26.087Z,-2.19
2023-02-09T15:14:03.915Z,-2.27
2023-02-09T15:16:32.878Z,-2.36
2023-02-09T15:19:05.458Z,-2.44
2023-02-09T15:21:34.041Z,-2.51
2023-02-09T15:24:02.730Z,-2.58
2023-02-09T15:26:34.750Z,-2.66
2023-02-09T15:29:09.898Z,-2.74
2023-02-09T15:31:38.165Z,-2.82
2023-02-09T15:34:06.888Z,-2.89
2023-02-09T15:36:35.212Z,-2.98
2023-02-09T15:39:04.627Z,-3.05
2023-02-09T15:41:51.480Z,-3.12
2023-02-09T15:44:40.034Z,-3.22
2023-02-09T15:47:27.460Z,-3.32
2023-02-09T15:49:55.742Z,-3.42
2023-02-09T15:52:24.406Z,-3.50
2023-02-09T15:54:53.518Z,-3.59
2023-02-09T15:57:25.315Z,-3.68
2023-02-09T15:59:53.555Z,-3.76
2023-02-09T16:02:22.564Z,-3.86
2023-02-09T16:04:50.933Z,-3.94
2023-02-09T16:07:25.385Z,-4.01
2023-02-09T16:09:53.951Z,-4.08
2023-02-09T16:12:22.472Z,-4.15
2023-02-09T16:14:53.075Z,-4.21
2023-02-09T16:17:21.631Z,-4.28
2023-02-09T16:19:49.701Z,-4.34
2023-02-09T16:22:22.790Z,-4.39
2023-02-09T16:24:51.476Z,-4.45
2023-02-09T16:27:25.386Z,-4.51
2023-02-09T16:29:54.792Z,-4.58
2023-02-09T16:32:24.688Z,-4.63
2023-02-09T16:34:52.883Z,-4.70
2023-02-09T16:37:32.119Z,-4.76
2023-02-09T16:40:01.825Z,-4.83
2023-02-09T16:42:30.001Z,-4.91
2023-02-09T16:44:58.488Z,-4.96
2023-02-09T16:47:28.506Z,-5.01
2023-02-09T16:49:59.259Z,-5.07
2023-02-09T16:52:30.431Z,-5.12
2023-02-09T16:55:01.137Z,-5.19
2023-02-09T16:57:29.504Z,-5.26
2023-02-09T16:59:57.920Z,-5.28
2023-02-09T17:02:40.952Z,-5.31
2023-02-09T17:05:44.084Z,-5.35
2023-02-09T17:08:16.362Z,-5.43
2023-02-09T17:10:46.396Z,-5.48
2023-02-09T17:13:17.622Z,-5.54
2023-02-09T17:15:52.007Z,-5.58
2023-02-09T17:18:29.639Z,-5.57
2023-02-09T17:21:00.065Z,-5.56
2023-02-09T17:23:29.979Z,-5.57
2023-02-09T17:25:58.872Z,-5.57
2023-02-09T17:28:28.229Z,-5.56
2023-02-09T17:31:02.291Z,-5.54
2023-02-09T17:33:33.616Z,-5.51
2023-02-09T17:38:52.353Z,-5.44
2023-02-09T17:41:24.577Z,-5.41
2023-02-09T17:43:53.775Z,-5.38
2023-02-09T17:46:22.914Z,-5.38
2023-02-09T17:48:51.349Z,-5.39
2023-02-09T17:51:23.539Z,-5.41
2023-02-09T17:53:51.901Z,-5.44
2023-02-09T17:56:20.078Z,-5.46
2023-02-09T17:58:48.558Z,-5.50
2023-02-09T18:01:28.890Z,-5.53
2023-02-09T18:04:00.040Z,-5.57
2023-02-09T18:06:36.228Z,-5.60
2023-02-09T18:09:07.620Z,-5.64
2023-02-09T18:11:45.165Z,-5.70
2023-02-09T18:14:17.396Z,-5.77
2023-02-09T18:16:47.190Z,-5.85
2023-02-09T18:19:18.396Z,-5.92
2023-02-09T18:21:54.966Z,-5.99
2023-02-09T18:24:25.286Z,-6.06
2023-02-09T18:26:53.676Z,-6.12
2023-02-09T18:29:23.871Z,-6.17
2023-02-09T18:31:52.268Z,-6.22
2023-02-09T18:34:20.542Z,-6.28
2023-02-09T18:36:49.260Z,-6.32
2023-02-09T18:39:17.846Z,-6.34
2023-02-09T18:41:51.413Z,-6.36
2023-02-09T18:44:28.724Z,-6.38
2023-02-09T18:47:00.673Z,-6.39
2023-02-09T18:49:29.668Z,-6.38
2023-02-09T18:51:59.660Z,-6.36
2023-02-09T18:54:29.291Z,-6.34
2023-02-09T18:56:57.592Z,-6.31
2023-02-09T18:59:32.601Z,-6.29
2023-02-09T19:02:01.235Z,-6.28
2023-02-09T19:04:29.668Z,-6.27
2023-02-09T19:06:58.764Z,-6.25
2023-02-09T19:09:27.036Z,-6.23
2023-02-09T19:11:55.418Z,-6.24
2023-02-09T19:14:39.359Z,-6.24
2023-02-09T19:17:14.965Z,-6.18
2023-02-09T19:19:44.808Z,-6.14
2023-02-09T19:22:21.499Z,-6.18
2023-02-09T19:24:52.979Z,-6.26
2023-02-09T19:27:21.777Z,-6.32
2023-02-09T19:29:56.558Z,-6.37
2023-02-09T19:32:26.602Z,-6.42
2023-02-09T19:34:54.863Z,-6.47
2023-02-09T19:37:23.342Z,-6.52
2023-02-09T19:40:04.199Z,-6.57
2023-02-09T19:42:33.665Z,-6.64
2023-02-09T19:45:02.436Z,-6.69
2023-02-09T19:47:30.580Z,-6.74
2023-02-09T19:49:58.856Z,-6.79
2023-02-09T19:52:28.169Z,-6.85
2023-02-09T19:54:57.948Z,-6.88
2023-02-09T19:57:26.977Z,-6.90
2023-02-09T19:59:55.654Z,-6.90
2023-02-09T20:02:23.956Z,-6.91
2023-02-09T20:04:52.798Z,-6.91
2023-02-09T20:07:22.120Z,-6.91
2023-02-09T20:09:52.486Z,-6.91
2023-02-09T20:12:22.194Z,-6.91
2023-02-09T20:14:51.014Z,-6.88
2023-02-09T20:19:52.476Z,-6.79
2023-02-09T20:22:21.711Z,-6.75
2023-02-09T20:24:50.117Z,-6.71
2023-02-09T20:27:19.294Z,-6.68
2023-02-09T20:29:47.668Z,-6.67
2023-02-09T20:32:16.153Z,-6.67
2023-02-09T20:34:44.285Z,-6.67
2023-02-09T20:37:12.804Z,-6.67
2023-02-09T20:39:40.879Z,-6.69
2023-02-09T20:42:28.097Z,-6.67
2023-02-09T20:45:15.121Z,-6.64
2023-02-09T20:47:43.706Z,-6.61
2023-02-09T20:50:13.925Z,-6.64
2023-02-09T20:52:42.543Z,-6.67
2023-02-09T20:55:10.611Z,-6.73
2023-02-09T20:57:38.958Z,-6.78
2023-02-09T21:00:09.753Z,-6.81
2023-02-09T21:02:38.694Z,-6.83
2023-02-09T21:05:07.574Z,-6.82
2023-02-09T21:07:36.176Z,-6.77
2023-02-09T21:10:04.499Z,-6.78
2023-02-09T21:12:32.919Z,-6.83
2023-02-09T21:15:01.911Z,-6.82
2023-02-09T21:17:30.189Z,-6.78
2023-02-09T21:19:58.564Z,-6.83
2023-02-09T21:22:26.949Z,-6.92
2023-02-09T21:24:55.125Z,-6.99
2023-02-09T21:27:26.182Z,-7.05
2023-02-09T21:29:54.743Z,-7.08
2023-02-09T21:32:23.033Z,-7.12
2023-02-09T21:34:51.408Z,-7.20
2023-02-09T21:37:19.782Z,-7.24
2023-02-09T21:39:48.160Z,-7.32
2023-02-09T21:42:28.932Z,-7.42
2023-02-09T21:44:58.691Z,-7.51
2023-02-09T21:47:33.361Z,-7.59
2023-02-09T21:50:02.047Z,-7.66
2023-02-09T21:52:31.657Z,-7.70
2023-02-09T21:55:00.799Z,-7.73
2023-02-09T21:57:29.750Z,-7.75
2023-02-09T21:59:59.162Z,-7.74
2023-02-09T22:02:27.645Z,-7.74
2023-02-09T22:04:56.212Z,-7.73
2023-02-09T22:07:24.592Z,-7.72
2023-02-09T22:09:52.869Z,-7.71
2023-02-09T22:12:21.245Z,-7.69
2023-02-09T22:14:49.731Z,-7.66
2023-02-09T22:17:18.105Z,-7.61
2023-02-09T22:19:46.380Z,-7.58
2023-02-09T22:22:14.560Z,-7.59
2023-02-09T22:24:43.036Z,-7.59
2023-02-09T22:27:11.213Z,-7.60
2023-02-09T22:29:39.606Z,-7.58
2023-02-09T22:32:08.072Z,-7.56
2023-02-09T22:34:36.656Z,-7.58
2023-02-09T22:37:04.978Z,-7.56
2023-02-09T22:39:33.312Z,-7.54
2023-02-09T22:42:01.690Z,-7.51
2023-02-09T22:44:30.708Z,-7.46
2023-02-09T22:46:58.859Z,-7.46
2023-02-09T22:49:28.270Z,-7.46
2023-02-09T22:51:56.371Z,-7.47
2023-02-09T22:54:25.055Z,-7.49
2023-02-09T22:56:53.507Z,-7.53
2023-02-09T22:59:21.788Z,-7.57
2023-02-09T23:01:50.165Z,-7.60
2023-02-09T23:04:18.703Z,-7.61
2023-02-09T23:06:47.544Z,-7.63
2023-02-09T23:09:16.842Z,-7.66
2023-02-09T23:11:45.331Z,-7.66
2023-02-09T23:14:13.812Z,-7.68
2023-02-09T23:16:44.858Z,-7.71
2023-02-09T23:19:16.739Z,-7.72
2023-02-09T23:21:47.918Z,-7.69
2023-02-09T23:24:18.391Z,-7.70
2023-02-09T23:26:46.668Z,-7.73
2023-02-09T23:29:16.474Z,-7.76
2023-02-09T23:31:46.119Z,-7.72
2023-02-09T23:34:17.649Z,-7.69
2023-02-09T23:36:46.623Z,-7.67
2023-02-09T23:39:18.362Z,-7.64
2023-02-09T23:41:47.396Z,-7.71
2023-02-09T23:44:15.962Z,-7.78
2023-02-09T23:46:44.986Z,-7.80
2023-02-09T23:49:13.335Z,-7.78
2023-02-09T23:51:42.028Z,-7.76
2023-02-09T23:54:11.054Z,-7.76
2023-02-09T23:56:39.318Z,-7.79
2023-02-09T23:59:13.141Z,-7.83
